Time;durP1;ratioP1;P1;durP2;ratioP2;P2;SDS_P1;SDS_P2;PMS_P1;PMS_P2;Temp;Humidity;BMP_temperature;BMP_pressure;BME280_temperature;BME280_humidity;BME280_pressure;Samples;Min_cycle;Max_cycle;Signal;HPM_P1;HPM_P2
2022/12/13 00:01:56;;;;;;;28.67;15.00;;;;;;;4.71;87.30;100241.08;1792371;78;20989;-88
2022/12/13 00:04:23;;;;;;;23.98;13.53;;;;;;;4.77;86.82;100243.42;1793576;78;21109;-88
2022/12/13 00:06:49;;;;;;;24.75;16.52;;;;;;;4.80;86.45;100242.45;1800817;78;21103;-88
2022/12/13 00:09:17;;;;;;;22.65;14.05;;;;;;;4.81;86.35;100244.98;1799238;78;20993;-88
2022/12/13 00:11:44;;;;;;;25.75;13.85;;;;;;;4.83;86.50;100242.34;1798139;78;20956;-87
2022/12/13 00:14:12;;;;;;;25.77;13.78;;;;;;;4.85;86.31;100246.55;1813786;78;21068;-89
2022/12/13 00:16:40;;;;;;;21.70;13.83;;;;;;;4.88;86.23;100245.58;1812287;78;21241;-87
2022/12/13 00:19:06;;;;;;;24.98;15.98;;;;;;;4.91;86.20;100241.53;1814152;78;21040;-86
2022/12/13 00:21:33;;;;;;;21.97;14.07;;;;;;;4.93;85.88;100243.61;1807951;78;21551;-88
2022/12/13 00:24:00;;;;;;;24.95;15.30;;;;;;;4.96;85.54;100247.40;1793775;78;21403;-89
2022/12/13 00:26:29;;;;;;;22.62;12.47;;;;;;;4.96;85.44;100250.84;1794275;78;20879;-88
2022/12/13 00:28:59;;;;;;;20.50;13.80;;;;;;;5.00;85.67;100250.23;1802824;78;21416;-88
2022/12/13 00:31:25;;;;;;;23.22;14.33;;;;;;;5.05;85.81;100253.95;1800595;78;20951;-86
2022/12/13 00:33:52;;;;;;;23.47;14.50;;;;;;;5.07;85.64;100251.67;1810317;78;21021;-88
2022/12/13 00:36:19;;;;;;;29.80;16.90;;;;;;;5.10;85.33;100251.53;1801684;78;21017;-87
2022/12/13 00:38:59;;;;;;;20.23;13.53;;;;;;;5.08;84.67;100249.45;1805761;78;20985;-86
2022/12/13 00:41:17;;;;;;;20.27;14.20;;;;;;;4.99;84.04;100245.49;1808202;78;21106;-84
2022/12/13 00:43:44;;;;;;;21.65;13.83;;;;;;;4.82;83.65;100244.06;1807415;78;20871;-86
2022/12/13 00:46:16;;;;;;;19.90;12.53;;;;;;;4.74;83.74;100248.76;1801453;78;20922;-89
2022/12/13 00:48:42;;;;;;;24.80;13.62;;;;;;;4.73;83.71;100258.73;1807792;78;21095;-86
2022/12/13 00:51:12;;;;;;;18.75;13.00;;;;;;;4.72;83.89;100256.61;1814913;78;21009;-85
2022/12/13 00:53:38;;;;;;;23.90;14.07;;;;;;;4.73;84.18;100260.87;1822479;78;21248;-87
2022/12/13 00:56:11;;;;;;;18.60;12.33;;;;;;;4.73;84.19;100262.17;1802970;78;20990;-87
2022/12/13 00:58:39;;;;;;;23.30;12.58;;;;;;;4.72;83.79;100259.20;1810427;78;21353;-88
2022/12/13 01:01:08;;;;;;;21.12;13.53;;;;;;;4.68;83.80;100262.83;1792967;78;20919;-88
2022/12/13 01:03:35;;;;;;;23.73;14.20;;;;;;;4.66;83.75;100265.11;1801013;78;21463;-87
2022/12/13 01:06:14;;;;;;;19.92;13.45;;;;;;;4.66;83.68;100261.20;1805760;78;21487;-87
2022/12/13 01:08:42;;;;;;;20.43;12.07;;;;;;;4.67;83.75;100259.86;1814761;78;20894;-88
2022/12/13 01:11:08;;;;;;;19.20;11.78;;;;;;;4.71;83.92;100261.85;1801526;78;20855;-87
2022/12/13 01:13:35;;;;;;;18.75;12.60;;;;;;;4.74;84.06;100263.87;1809619;78;20919;-87
2022/12/13 01:16:03;;;;;;;22.40;13.70;;;;;;;4.76;83.87;100271.16;1798988;78;20879;-87
2022/12/13 01:18:30;;;;;;;20.75;14.83;;;;;;;4.69;83.42;100274.92;1796442;78;21146;-87
2022/12/13 01:21:05;;;;;;;22.00;14.18;;;;;;;4.57;83.30;100271.52;1799430;78;21018;-87
2022/12/13 01:23:32;;;;;;;20.52;14.13;;;;;;;4.46;83.58;100275.84;1809789;78;20963;-87
2022/12/13 01:26:03;;;;;;;24.05;14.10;;;;;;;4.38;83.79;100278.35;1798923;78;20879;-87
2022/12/13 01:28:29;;;;;;;21.45;13.60;;;;;;;4.32;84.09;100277.70;1803906;78;20906;-87
2022/12/13 01:30:58;;;;;;;22.60;14.30;;;;;;;4.32;84.43;100272.51;1799005;78;21155;-87
2022/12/13 01:33:25;;;;;;;20.02;14.90;;;;;;;4.29;84.51;100273.06;1794269;79;21068;-86
2022/12/13 01:35:52;;;;;;;29.92;16.57;;;;;;;4.27;85.01;100278.34;1794294;78;20993;-87
2022/12/13 01:38:19;;;;;;;27.87;17.37;;;;;;;4.26;85.47;100280.98;1801573;78;21084;-86
2022/12/13 01:40:48;;;;;;;27.65;17.20;;;;;;;4.30;85.51;100275.62;1799128;78;21172;-86
2022/12/13 01:43:15;;;;;;;28.40;18.80;;;;;;;4.29;85.31;100271.34;1800806;78;21305;-86
2022/12/13 01:45:42;;;;;;;25.00;16.65;;;;;;;4.25;85.28;100271.06;1800784;78;20950;-87
2022/12/13 01:48:16;;;;;;;24.07;16.60;;;;;;;4.25;85.47;100274.96;1802759;78;21015;-86
2022/12/13 01:50:47;;;;;;;24.80;15.32;;;;;;;4.29;85.40;100271.77;1798279;78;21609;-87
2022/12/13 01:53:20;;;;;;;25.32;16.90;;;;;;;4.29;85.51;100279.56;1810085;78;22097;-87
2022/12/13 01:55:51;;;;;;;23.87;14.98;;;;;;;4.36;85.73;100274.54;1810611;78;21203;-87
2022/12/13 01:58:17;;;;;;;24.85;15.43;;;;;;;4.35;85.57;100271.08;1801519;78;20947;-87
2022/12/13 02:00:44;;;;;;;27.22;18.42;;;;;;;4.36;85.63;100278.44;1812785;78;21456;-87
2022/12/13 02:03:11;;;;;;;32.88;19.50;;;;;;;4.42;85.86;100272.14;1794294;78;20882;-86
2022/12/13 02:05:42;;;;;;;26.42;16.15;;;;;;;4.48;85.60;100274.49;1805913;78;21112;-87
2022/12/13 02:08:10;;;;;;;30.35;19.30;;;;;;;4.54;85.45;100266.46;1803789;78;21287;-86
2022/12/13 02:10:36;;;;;;;31.05;19.75;;;;;;;4.56;85.09;100271.98;1805989;78;20916;-86
2022/12/13 02:13:04;;;;;;;23.57;16.55;;;;;;;4.57;84.40;100272.36;1807944;78;20982;-87
2022/12/13 02:15:59;;;;;;;23.52;14.83;;;;;;;4.53;84.05;100269.95;1794014;78;20966;-86
2022/12/13 02:19:04;;;;;;;24.65;14.70;;;;;;;4.47;84.05;100271.06;1792849;78;20915;-85
2022/12/13 02:22:01;;;;;;;27.27;15.80;;;;;;;4.42;84.15;100272.14;1770534;78;21152;-86
2022/12/13 02:24:48;;;;;;;19.30;14.47;;;;;;;4.38;84.50;100257.58;1793234;78;20950;-85
2022/12/13 02:27:58;;;;;;;29.12;15.18;;;;;;;4.38;84.24;100261.05;1798669;78;20923;-86
2022/12/13 02:30:42;;;;;;;26.57;15.60;;;;;;;4.36;84.14;100258.51;1809438;78;20880;-86
2022/12/13 02:33:18;;;;;;;26.62;15.43;;;;;;;4.28;83.77;100261.84;1801054;78;21001;-86
2022/12/13 02:36:17;;;;;;;27.67;15.43;;;;;;;4.18;83.59;100263.14;1786144;78;21204;-87
2022/12/13 02:39:13;;;;;;;20.77;13.35;;;;;;;4.14;83.88;100262.41;1789478;78;21226;-86
2022/12/13 02:41:55;;;;;;;23.02;14.07;;;;;;;4.13;84.35;100263.29;1804544;78;20979;-85
2022/12/13 02:44:38;;;;;;;25.25;16.15;;;;;;;4.14;84.60;100268.05;1806595;78;20978;-87
2022/12/13 02:47:13;;;;;;;30.35;15.85;;;;;;;4.15;84.65;100269.27;1814337;78;21050;-85
2022/12/13 02:49:41;;;;;;;;;;;;;;;4.17;84.44;100271.81;1802718;78;21152;-85
2022/12/13 02:52:08;;;;;;;26.00;15.10;;;;;;;4.11;84.04;100263.83;1799857;78;20113;-87
2022/12/13 02:54:36;;;;;;;29.20;15.78;;;;;;;4.07;83.92;100264.85;1775334;78;20939;-86
2022/12/13 02:57:02;;;;;;;24.65;16.05;;;;;;;4.02;83.63;100264.16;1806022;78;20907;-86
2022/12/13 02:59:35;;;;;;;24.60;16.02;;;;;;;3.98;83.95;100270.40;1807559;78;21582;-87
2022/12/13 03:02:20;;;;;;;25.80;15.63;;;;;;;3.98;84.35;100279.48;1797949;78;21463;-86
2022/12/13 03:08:37;;;;;;;25.57;17.00;;;;;;;4.06;84.77;100267.49;1807368;78;20895;-85
2022/12/13 03:11:15;;;;;;;27.75;16.00;;;;;;;4.05;84.53;100276.20;1808664;78;21281;-87
2022/12/13 03:13:50;;;;;;;28.77;16.32;;;;;;;4.00;84.45;100280.70;1808380;78;21542;-87
2022/12/13 03:16:26;;;;;;;27.48;18.00;;;;;;;4.01;84.20;100275.92;1800146;78;21447;-86
2022/12/13 03:18:56;;;;;;;33.20;17.75;;;;;;;3.98;84.10;100274.72;1801671;78;20923;-87
2022/12/13 03:21:22;;;;;;;30.52;16.62;;;;;;;3.92;84.60;100279.25;1808066;78;21006;-88
2022/12/13 03:23:49;;;;;;;32.42;17.95;;;;;;;3.90;84.62;100286.70;1807457;78;21084;-87
2022/12/13 03:26:23;;;;;;;36.95;19.27;;;;;;;3.83;84.63;100287.84;1803391;78;21021;-86
2022/12/13 03:28:49;;;;;;;36.20;20.85;;;;;;;3.78;84.85;100277.64;1819987;78;21220;-86
2022/12/13 03:31:18;;;;;;;37.65;18.23;;;;;;;3.69;84.65;100275.36;1791274;78;20870;-87
2022/12/13 03:33:44;;;;;;;39.60;19.50;;;;;;;3.58;84.67;100273.19;1805968;78;21025;-88
2022/12/13 03:36:12;;;;;;;31.93;19.92;;;;;;;3.51;84.77;100274.30;1807891;78;20884;-88
2022/12/13 03:38:39;;;;;;;36.23;18.65;;;;;;;3.43;85.07;100269.86;1803524;78;20894;-87
2022/12/13 03:41:11;;;;;;;32.88;17.75;;;;;;;3.36;85.43;100264.05;1778944;78;21073;-86
2022/12/13 03:43:39;;;;;;;41.00;19.77;;;;;;;3.30;85.83;100267.69;1808506;78;20927;-87
2022/12/13 03:46:06;;;;;;;38.78;18.90;;;;;;;3.26;86.15;100267.86;1807551;78;20930;-88
2022/12/13 03:48:33;;;;;;;34.60;18.57;;;;;;;3.22;86.33;100277.47;1803061;78;21128;-87
2022/12/13 03:50:59;;;;;;;37.75;18.10;;;;;;;3.18;86.43;100269.44;1794334;78;20863;-87
2022/12/13 03:53:26;;;;;;;43.42;19.87;;;;;;;3.22;86.37;100255.91;1815240;78;21225;-88
2022/12/13 03:55:53;;;;;;;32.93;17.17;;;;;;;3.18;86.41;100251.73;1808513;78;21072;-87
2022/12/13 03:58:20;;;;;;;39.30;18.50;;;;;;;3.16;86.46;100247.91;1811214;78;21480;-88
2022/12/13 04:00:46;;;;;;;34.00;16.75;;;;;;;3.16;86.70;100242.73;1812938;78;21009;-87
2022/12/13 04:03:13;;;;;;;33.28;17.70;;;;;;;3.14;86.66;100233.33;1771211;79;21092;-88
2022/12/13 04:05:39;;;;;;;42.30;19.12;;;;;;;3.07;86.71;100235.30;1798323;78;21258;-86
2022/12/13 04:08:06;;;;;;;36.95;19.52;;;;;;;3.03;87.11;100236.30;1806164;78;21135;-85
2022/12/13 04:10:34;;;;;;;41.85;18.40;;;;;;;3.08;87.67;100236.52;1805608;78;21001;-89
2022/12/13 04:15:47;;;;;;;33.83;17.30;;;;;;;3.20;87.14;100227.91;1815940;78;20997;-88
2022/12/13 04:18:16;;;;;;;31.57;16.32;;;;;;;3.17;86.84;100229.33;1804949;78;21076;-86
2022/12/13 04:20:43;;;;;;;38.78;18.65;;;;;;;3.05;86.90;100218.95;1797901;78;20839;-87
2022/12/13 04:23:11;;;;;;;33.63;18.07;;;;;;;2.99;87.86;100214.83;1803422;78;20872;-86
2022/12/13 04:25:38;;;;;;;46.53;21.52;;;;;;;3.08;88.59;100208.02;1793730;78;20933;-87
2022/12/13 04:28:05;;;;;;;41.90;20.65;;;;;;;3.19;88.54;100198.57;1807183;78;21005;-87
2022/12/13 04:30:34;;;;;;;36.45;18.32;;;;;;;3.29;88.34;100199.94;1806713;78;20887;-88
2022/12/13 04:33:00;;;;;;;38.73;19.48;;;;;;;3.34;87.41;100196.33;1795592;78;21072;-88
2022/12/13 04:35:27;;;;;;;37.23;18.50;;;;;;;3.27;87.07;100202.20;1793841;78;21001;-87
2022/12/13 04:37:55;;;;;;;31.75;17.30;;;;;;;3.26;87.54;100192.71;1799507;78;21131;-88
2022/12/13 04:40:23;;;;;;;39.90;18.87;;;;;;;3.25;87.38;100194.92;1789040;78;20910;-88
2022/12/13 04:42:50;;;;;;;46.60;21.05;;;;;;;3.20;87.36;100196.39;1807007;78;21271;-86
2022/12/13 04:45:17;;;;;;;38.48;19.30;;;;;;;3.16;87.74;100193.51;1802842;78;20876;-88
2022/12/13 04:47:44;;;;;;;38.42;19.30;;;;;;;3.18;87.98;100187.83;1800521;78;20886;-87
2022/12/13 04:50:11;;;;;;;40.80;19.25;;;;;;;3.25;87.95;100184.56;1793205;78;21455;-87
2022/12/13 04:52:39;;;;;;;39.95;19.57;;;;;;;3.25;87.69;100176.33;1813904;78;20911;-86
2022/12/13 04:55:07;;;;;;;36.60;18.05;;;;;;;3.27;87.61;100164.16;1808659;78;21119;-87
2022/12/13 04:57:34;;;;;;;33.98;18.42;;;;;;;3.29;87.33;100156.30;1801985;78;21108;-88
2022/12/13 05:00:03;;;;;;;28.10;14.85;;;;;;;3.24;87.28;100169.90;1803233;78;20989;-88
2022/12/13 05:02:30;;;;;;;37.78;17.07;;;;;;;3.16;87.23;100164.14;1799342;78;21014;-88
2022/12/13 05:04:58;;;;;;;45.58;17.82;;;;;;;3.04;87.50;100165.44;1806490;78;20982;-87
2022/12/13 05:07:25;;;;;;;33.90;18.15;;;;;;;2.93;87.80;100168.41;1813968;78;21100;-88
2022/12/13 05:09:52;;;;;;;38.98;20.17;;;;;;;2.87;88.21;100173.84;1814327;78;20918;-86
2022/12/13 05:12:18;;;;;;;43.25;19.15;;;;;;;2.86;88.69;100169.54;1801639;78;20910;-87
2022/12/13 05:14:45;;;;;;;36.70;18.05;;;;;;;2.89;88.75;100178.48;1799733;78;21487;-87
2022/12/13 05:17:11;;;;;;;37.90;19.15;;;;;;;2.90;88.62;100179.73;1809600;78;20876;-86
2022/12/13 05:19:38;;;;;;;37.50;19.82;;;;;;;2.95;88.95;100179.56;1808272;78;21932;-85
2022/12/13 05:22:04;;;;;;;38.85;19.65;;;;;;;3.01;88.93;100168.16;1802344;78;20867;-85
2022/12/13 05:24:32;;;;;;;40.10;20.88;;;;;;;3.03;88.83;100156.00;1789339;79;21402;-87
2022/12/13 05:26:58;;;;;;;37.70;19.55;;;;;;;3.02;89.01;100153.00;1793089;78;21084;-87
2022/12/13 05:29:26;;;;;;;42.53;20.10;;;;;;;3.03;88.82;100159.88;1802346;78;20946;-87
2022/12/13 05:31:53;;;;;;;46.20;22.07;;;;;;;2.99;88.80;100147.48;1802771;78;21116;-86
2022/12/13 05:34:19;;;;;;;43.40;21.17;;;;;;;2.96;88.85;100154.08;1798357;78;20930;-87
2022/12/13 05:36:46;;;;;;;39.73;22.25;;;;;;;2.96;89.01;100150.62;1799483;78;20942;-87
2022/12/13 05:39:12;;;;;;;39.83;19.52;;;;;;;3.04;89.09;100151.20;1804940;78;20892;-86
2022/12/13 05:41:39;;;;;;;36.08;20.65;;;;;;;3.07;88.82;100145.92;1805814;78;20884;-86
2022/12/13 05:44:09;;;;;;;37.80;19.17;;;;;;;3.08;88.83;100144.55;1804907;78;21938;-86
2022/12/13 05:46:36;;;;;;;43.38;23.40;;;;;;;3.09;88.92;100146.69;1794421;79;20961;-87
2022/12/13 05:49:02;;;;;;;38.48;21.42;;;;;;;3.15;89.22;100140.45;1796035;78;20933;-87
2022/12/13 05:51:29;;;;;;;43.25;20.48;;;;;;;3.25;89.31;100141.34;1795410;78;20946;-89
2022/12/13 05:53:55;;;;;;;43.05;21.77;;;;;;;3.37;89.00;100135.30;1743596;81;20996;-86
2022/12/13 05:56:21;;;;;;;43.78;21.45;;;;;;;3.41;88.35;100136.42;1746695;81;21144;-87
2022/12/13 05:58:48;;;;;;;43.83;22.75;;;;;;;3.43;87.83;100142.39;1754939;81;21563;-88
2022/12/13 06:01:15;;;;;;;37.05;21.20;;;;;;;3.42;87.28;100152.35;1733872;81;21033;-88
2022/12/13 06:03:42;;;;;;;35.95;20.35;;;;;;;3.43;87.16;100152.77;1723330;81;21629;-86
2022/12/13 06:06:10;;;;;;;43.90;21.87;;;;;;;3.43;87.11;100151.92;1723849;81;20927;-87
2022/12/13 06:08:36;;;;;;;48.78;21.52;;;;;;;3.44;87.36;100154.89;1719289;82;21227;-88
2022/12/13 06:11:03;;;;;;;48.92;22.87;;;;;;;3.50;87.37;100154.67;1757256;80;20888;-87
2022/12/13 06:13:30;;;;;;;41.45;22.45;;;;;;;3.52;86.99;100155.00;1739999;81;20950;-87
2022/12/13 06:16:02;;;;;;;44.65;22.93;;;;;;;3.52;86.96;100161.48;1742226;81;21547;-88
2022/12/13 06:18:34;;;;;;;48.40;25.97;;;;;;;3.53;86.86;100168.80;1748259;81;20940;-88
2022/12/13 06:21:03;;;;;;;42.33;21.80;;;;;;;3.55;86.78;100173.94;1745308;81;21298;-86
2022/12/13 06:23:32;;;;;;;38.50;20.88;;;;;;;3.58;86.53;100174.67;1739939;81;20962;-89
2022/12/13 06:26:03;;;;;;;41.18;20.90;;;;;;;3.60;86.17;100175.89;1746155;81;21427;-86
2022/12/13 06:28:31;;;;;;;37.67;20.68;;;;;;;3.54;86.10;100165.31;1737264;81;20924;-88
2022/12/13 06:31:01;;;;;;;41.73;21.70;;;;;;;3.47;86.41;100158.69;1740196;81;20974;-87
2022/12/13 06:33:28;;;;;;;42.17;20.65;;;;;;;3.49;87.30;100157.72;1744166;81;21158;-87
2022/12/13 06:35:57;;;;;;;44.93;22.42;;;;;;;3.51;86.79;100159.80;1747006;81;21039;-87
2022/12/13 06:38:25;;;;;;;46.85;23.40;;;;;;;3.47;86.79;100164.70;1736716;81;20916;-87
2022/12/13 06:40:51;;;;;;;44.58;25.05;;;;;;;3.45;86.78;100173.45;1739993;81;21500;-87
2022/12/13 06:43:21;;;;;;;42.53;21.93;;;;;;;3.44;87.03;100176.92;1742405;81;21381;-87
2022/12/13 06:45:48;;;;;;;44.73;24.02;;;;;;;3.52;87.18;100169.25;1737781;81;21149;-86
2022/12/13 06:48:15;;;;;;;42.23;21.95;;;;;;;3.62;87.12;100181.41;1737417;81;20959;-87
2022/12/13 06:50:41;;;;;;;38.25;22.37;;;;;;;3.66;86.77;100176.95;1738926;81;21032;-86
2022/12/13 06:53:08;;;;;;;43.80;23.47;;;;;;;3.65;86.71;100175.28;1746761;81;20932;-88
2022/12/13 06:55:35;;;;;;;42.90;21.62;;;;;;;3.63;86.81;100179.68;1738802;81;21714;-86
2022/12/13 06:58:02;;;;;;;46.08;22.37;;;;;;;3.63;86.89;100175.79;1750039;81;21149;-88
2022/12/13 07:00:30;;;;;;;44.50;21.07;;;;;;;3.64;86.78;100169.69;1798583;78;21092;-90
2022/12/13 07:02:56;;;;;;;46.60;22.15;;;;;;;3.62;86.67;100165.02;1794408;78;20986;-89
2022/12/13 07:05:23;;;;;;;46.65;22.77;;;;;;;3.59;86.73;100169.03;1798897;78;20927;-88
2022/12/13 07:07:50;;;;;;;40.90;21.75;;;;;;;3.57;86.54;100169.08;1804205;78;20985;-88
2022/12/13 07:10:17;;;;;;;46.42;24.43;;;;;;;3.57;86.52;100169.54;1804536;78;21205;-90
2022/12/13 07:12:44;;;;;;;42.78;20.82;;;;;;;3.54;86.81;100170.50;1809944;78;20869;-89
2022/12/13 07:15:10;;;;;;;40.03;21.35;;;;;;;3.55;87.50;100165.70;1808680;78;20941;-87
2022/12/13 07:17:38;;;;;;;41.83;22.27;;;;;;;3.61;87.71;100173.25;1808641;78;21463;-88
2022/12/13 07:20:07;;;;;;;43.20;23.32;;;;;;;3.65;87.65;100171.39;1802842;78;20944;-88
2022/12/13 07:22:34;;;;;;;42.73;23.55;;;;;;;3.68;87.42;100158.30;1801563;78;21226;-87
2022/12/13 07:25:03;;;;;;;43.80;23.32;;;;;;;3.66;87.40;100154.45;1805738;78;21010;-87
2022/12/13 07:27:30;;;;;;;39.00;21.33;;;;;;;3.70;87.34;100161.67;1807729;78;21039;-87
2022/12/13 07:29:56;;;;;;;37.55;20.45;;;;;;;3.73;87.20;100153.34;1794996;78;21387;-89
2022/12/13 07:32:23;;;;;;;37.67;21.57;;;;;;;3.81;87.18;100145.70;1811647;78;20836;-88
2022/12/13 07:34:50;;;;;;;36.08;19.95;;;;;;;3.85;87.10;100154.59;1804534;78;21109;-87
2022/12/13 07:37:16;;;;;;;41.37;21.40;;;;;;;3.88;87.29;100140.66;1811029;78;20879;-89
2022/12/13 07:39:43;;;;;;;41.10;21.33;;;;;;;3.91;87.20;100128.84;1818024;78;21425;-87
2022/12/13 07:42:11;;;;;;;35.68;21.27;;;;;;;3.91;87.05;100136.20;1796931;78;21352;-88
2022/12/13 07:44:37;;;;;;;40.90;22.07;;;;;;;3.94;87.08;100145.14;1803718;78;20950;-88
2022/12/13 07:47:06;;;;;;;44.38;22.87;;;;;;;3.93;86.69;100136.98;1793872;78;22043;-87
2022/12/13 07:49:33;;;;;;;34.63;20.17;;;;;;;3.92;86.80;100140.92;1797417;78;21200;-89
2022/12/13 07:52:01;;;;;;;40.63;23.22;;;;;;;3.95;86.77;100127.82;1822115;78;20954;-88
2022/12/13 07:54:28;;;;;;;39.75;21.20;;;;;;;4.00;86.80;100120.69;1798404;78;20990;-88
2022/12/13 07:56:54;;;;;;;42.23;22.40;;;;;;;4.02;86.55;100112.84;1802343;78;21575;-88
2022/12/13 07:59:20;;;;;;;45.65;23.92;;;;;;;3.99;86.75;100109.09;1815218;78;21249;-88
2022/12/13 08:01:47;;;;;;;47.27;23.07;;;;;;;3.97;86.91;100100.06;1797889;78;21522;-91
2022/12/13 08:04:13;;;;;;;49.08;25.10;;;;;;;3.99;87.12;100089.64;1801863;78;20911;-88
2022/12/13 08:06:40;;;;;;;45.75;26.30;;;;;;;4.02;87.12;100088.20;1804087;78;20907;-91
2022/12/13 08:09:07;;;;;;;43.65;22.13;;;;;;;4.04;86.93;100091.58;1814949;78;20920;-89
2022/12/13 08:11:34;;;;;;;40.25;22.45;;;;;;;4.03;86.67;100096.39;1805943;78;21120;-89
2022/12/13 08:14:00;;;;;;;41.15;23.38;;;;;;;3.99;86.34;100089.17;1807966;78;20887;-88
2022/12/13 08:16:29;;;;;;;45.65;23.10;;;;;;;3.98;86.71;100100.91;1805422;78;20957;-91
2022/12/13 08:21:19;;;;;;;48.60;26.57;;;;;;;4.06;86.96;100094.50;1817632;79;22638;-89
2022/12/13 08:23:47;;;;;;;50.43;28.20;;;;;;;4.05;86.69;100087.63;1790397;80;20876;-89
2022/12/13 08:26:14;;;;;;;51.37;27.60;;;;;;;4.07;86.84;100084.95;1790313;80;21322;-89
2022/12/13 08:28:40;;;;;;;56.48;29.32;;;;;;;4.10;86.71;100088.27;1790820;80;20920;-89
2022/12/13 08:31:11;;;;;;;57.73;29.30;;;;;;;4.12;86.76;100085.16;1790528;80;20919;-88
2022/12/13 08:33:39;;;;;;;57.38;28.50;;;;;;;4.15;86.62;100072.52;1790921;80;21412;-86
2022/12/13 08:36:16;;;;;;;52.73;26.57;;;;;;;4.20;86.62;100069.26;1791490;80;20900;-88
2022/12/13 08:38:44;;;;;;;50.60;26.62;;;;;;;4.27;86.64;100065.95;1793057;80;21267;-89
2022/12/13 08:41:12;;;;;;;47.73;26.57;;;;;;;4.32;86.65;100062.72;1792981;80;20872;-88
2022/12/13 08:43:38;;;;;;;46.48;25.62;;;;;;;4.36;86.60;100060.38;1791647;80;20943;-87
2022/12/13 08:46:05;;;;;;;37.90;24.45;;;;;;;4.41;86.84;100058.88;1791688;80;21026;-87
2022/12/13 08:48:32;;;;;;;43.20;24.45;;;;;;;4.53;86.98;100062.23;1790654;80;20891;-88
2022/12/13 08:51:02;;;;;;;46.90;25.62;;;;;;;4.60;86.36;100058.44;1790067;80;21961;-88
2022/12/13 08:53:29;;;;;;;46.95;25.05;;;;;;;4.64;86.13;100054.80;1790015;80;20967;-90
2022/12/13 08:56:02;;;;;;;38.23;22.80;;;;;;;4.71;85.94;100038.48;1789918;80;20982;-89
2022/12/13 08:58:30;;;;;;;37.10;21.10;;;;;;;4.77;85.50;100038.22;1789358;80;20959;-89
2022/12/13 09:00:57;;;;;;;33.63;19.32;;;;;;;4.81;84.96;100019.45;1790039;80;21412;-88
2022/12/13 09:03:23;;;;;;;35.78;20.35;;;;;;;4.81;84.57;100017.69;1789875;80;21246;-87
2022/12/13 09:05:50;;;;;;;37.30;20.60;;;;;;;4.82;84.56;100004.23;1790462;80;20880;-87
2022/12/13 09:08:17;;;;;;;36.48;22.22;;;;;;;4.87;85.03;99999.66;1791277;80;20912;-88
2022/12/13 09:10:45;;;;;;;39.53;20.92;;;;;;;4.93;84.94;99989.83;1790375;80;20942;-88
2022/12/13 09:13:12;;;;;;;34.65;20.27;;;;;;;5.00;84.76;99981.28;1790493;80;20892;-87
2022/12/13 09:15:40;;;;;;;38.15;20.48;;;;;;;5.03;83.93;99979.86;1790208;80;21222;-87
2022/12/13 09:18:07;;;;;;;34.20;19.48;;;;;;;4.94;83.69;99979.00;1790347;80;21026;-87
2022/12/13 09:20:36;;;;;;;33.70;18.60;;;;;;;4.87;83.77;99981.48;1787352;80;21353;-88
2022/12/13 09:23:03;;;;;;;33.60;19.40;;;;;;;4.86;83.78;99973.31;1785201;80;20892;-88
2022/12/13 09:25:32;;;;;;;27.50;17.52;;;;;;;4.89;83.86;99974.45;1785254;80;20896;-87
2022/12/13 09:28:01;;;;;;;32.45;17.27;;;;;;;4.89;83.75;99967.53;1784870;80;21140;-88
2022/12/13 09:30:27;;;;;;;32.80;19.25;;;;;;;4.91;84.01;99958.34;1784622;80;20924;-91
2022/12/13 09:32:55;;;;;;;29.37;18.50;;;;;;;4.99;84.57;99952.34;1784079;80;20932;-88
2022/12/13 09:35:23;;;;;;;31.48;19.55;;;;;;;5.10;84.40;99951.36;1784171;80;21044;-90
2022/12/13 09:37:52;;;;;;;26.70;17.07;;;;;;;5.21;83.80;99940.45;1784573;80;20892;-89
2022/12/13 09:40:22;;;;;;;25.90;17.82;;;;;;;5.21;82.94;99930.05;1784321;80;21123;-89
2022/12/13 09:42:52;;;;;;;27.82;15.13;;;;;;;5.15;82.52;99930.34;1784028;80;20928;-89
2022/12/13 09:45:18;;;;;;;25.95;16.77;;;;;;;5.08;82.17;99925.91;1784779;80;21468;-89
2022/12/13 09:47:48;;;;;;;27.80;16.55;;;;;;;4.97;82.19;99906.09;1786170;80;20994;-89
2022/12/13 09:50:28;;;;;;;28.38;16.55;;;;;;;4.91;82.62;99905.95;1786712;80;20960;-88
2022/12/13 09:52:57;;;;;;;25.40;16.93;;;;;;;4.89;82.74;99890.02;1786733;80;21156;-87
2022/12/13 09:55:29;;;;;;;26.80;17.17;;;;;;;4.93;82.96;99884.61;1784906;79;20999;-87
2022/12/13 09:57:56;;;;;;;28.83;17.32;;;;;;;4.93;82.71;99882.00;1787048;80;20927;-87
2022/12/13 10:00:27;;;;;;;28.10;17.62;;;;;;;4.89;82.52;99886.13;1787033;80;20927;-87
2022/12/13 10:02:56;;;;;;;23.60;14.85;;;;;;;4.82;82.60;99880.39;1786877;79;20959;-89
2022/12/13 10:05:36;;;;;;;23.57;15.48;;;;;;;4.76;82.51;99877.64;1786930;78;21087;-89
2022/12/13 10:08:24;;;;;;;25.02;16.50;;;;;;;4.68;82.59;99858.14;1786690;78;20923;-87
2022/12/13 10:10:54;;;;;;;28.95;16.32;;;;;;;4.64;83.52;99852.71;1786783;78;20923;-86
2022/12/13 10:13:59;;;;;;;29.90;17.27;;;;;;;4.72;84.11;99844.10;1786681;79;20963;-88
2022/12/13 10:16:37;;;;;;;28.17;17.87;;;;;;;4.82;84.03;99831.50;1786488;78;20912;-87
2022/12/13 10:19:34;;;;;;;25.97;16.95;;;;;;;4.92;83.77;99823.19;1786973;78;21109;-87
2022/12/13 10:22:02;;;;;;;31.07;18.25;;;;;;;4.94;83.42;99817.45;1784452;80;20888;-86
2022/12/13 10:24:51;;;;;;;31.77;17.70;;;;;;;4.90;82.94;99806.83;1784083;80;20856;-87
2022/12/13 10:27:28;;;;;;;34.00;21.68;;;;;;;4.85;82.93;99803.63;1784013;80;20948;-89
2022/12/13 10:30:21;;;;;;;39.00;18.17;;;;;;;4.85;82.65;99791.11;1783911;80;20852;-89
2022/12/13 10:33:02;;;;;;;24.43;15.65;;;;;;;4.78;82.72;99784.08;1784224;80;21891;-87
2022/12/13 10:35:36;;;;;;;28.35;17.35;;;;;;;4.73;82.99;99784.27;1783877;80;21042;-89
2022/12/13 10:38:12;;;;;;;28.77;18.30;;;;;;;4.75;83.63;99786.80;1783997;80;20885;-91
2022/12/13 10:40:44;;;;;;;36.05;20.50;;;;;;;4.78;83.62;99785.38;1779370;80;20908;-89
2022/12/13 10:43:19;;;;;;;37.23;19.85;;;;;;;4.78;83.85;99777.58;1784233;80;20991;-88
2022/12/13 10:45:59;;;;;;;31.20;19.77;;;;;;;4.81;83.89;99784.38;1783991;80;21231;-89
2022/12/13 10:48:48;;;;;;;34.03;19.90;;;;;;;4.76;83.61;99784.61;1784579;80;20939;-88
2022/12/13 10:51:20;;;;;;;28.00;18.20;;;;;;;4.73;83.61;99775.65;1784000;80;21022;-88
2022/12/13 10:53:54;;;;;;;35.00;21.02;;;;;;;4.73;83.90;99769.16;1784189;80;20948;-88
2022/12/13 10:56:24;;;;;;;28.27;18.73;;;;;;;4.68;83.88;99765.95;1783740;80;21070;-89
2022/12/13 10:58:58;;;;;;;34.45;18.45;;;;;;;4.59;84.07;99758.63;1782512;80;21065;-89
2022/12/13 11:01:27;;;;;;;40.12;22.37;;;;;;;4.54;84.34;99750.59;1739625;80;21050;-88
2022/12/13 11:04:02;;;;;;;34.50;21.12;;;;;;;4.51;84.67;99744.70;1783914;80;21005;-89
2022/12/13 11:06:45;;;;;;;31.48;17.92;;;;;;;4.44;84.67;99743.33;1784174;80;20928;-90
2022/12/13 11:09:33;;;;;;;29.10;19.15;;;;;;;4.34;84.79;99733.39;1784015;80;20900;-89
2022/12/13 11:12:03;;;;;;;27.27;18.67;;;;;;;4.25;85.11;99735.61;1783938;80;21492;-88
2022/12/13 11:14:33;;;;;;;30.57;18.62;;;;;;;4.17;85.42;99731.23;1782325;80;20954;-88
2022/12/13 11:17:09;;;;;;;29.95;17.55;;;;;;;4.10;85.88;99739.30;1783795;80;20848;-88
2022/12/13 11:19:39;;;;;;;28.00;18.30;;;;;;;4.06;86.05;99737.77;1783793;80;21018;-87
2022/12/13 11:22:07;;;;;;;29.18;17.90;;;;;;;4.06;86.26;99743.41;1782720;80;20947;-88
2022/12/13 11:24:37;;;;;;;27.70;16.90;;;;;;;4.03;86.25;99753.48;1783670;80;21160;-89
2022/12/13 11:27:30;;;;;;;26.05;17.05;;;;;;;4.05;86.24;99750.36;1783965;80;21358;-89
2022/12/13 11:30:10;;;;;;;24.57;15.48;;;;;;;4.05;86.45;99740.45;1783927;80;20956;-88
2022/12/13 11:33:11;;;;;;;27.67;16.85;;;;;;;3.98;86.59;99723.04;1785023;80;20982;-87
2022/12/13 11:36:03;;;;;;;24.52;17.37;;;;;;;3.92;86.73;99712.95;1784095;80;20995;-88
2022/12/13 11:39:15;;;;;;;24.43;16.65;;;;;;;3.87;86.74;99724.00;1783838;80;21280;-90
2022/12/13 11:41:47;;;;;;;29.12;17.00;;;;;;;3.82;86.56;99722.89;1784626;80;20920;-89
2022/12/13 11:44:23;;;;;;;26.23;16.12;;;;;;;3.72;86.43;99732.03;1784322;80;20853;-89